Enter the Airport ICAO Code

Search by Airport or City

Current Weather

LEMD | Adolfo Suárez Madrid–Barajas Airport

Madrid, Spain

Last Update 18 Minutes Ago

Clear Sky

Temperature of 10 ºC

Light to Moderate Winds from NorthEast

Temperature

10 ºC

Dew Point Temperature

01 ºC

Relative Humidity

53.6 %

Wind Direction

NorthEast (060º, Ranging from 020º to 150º)

Wind Velocity

11 km/h (06 kt)

Gusts

None

Visibility

No Significant Reductions

Sea Level Pressure

1019 hPa (Hectopascals)

Layers of Clouds

None

METAR LEMD 091030Z 06006KT 020V150 CAVOK 10/01 Q1019 NOSIG

Weather Forecast

LEMD | Adolfo Suárez Madrid–Barajas Airport

Madrid, Spain

Forecast valid for the next 25 Hours

From now on it is expected:

Mostly Cloudy Sky

Light to Moderate Winds from North

Maximum Temperature

14 ºC in 4 Hours

Minimum Temperature

01 ºC in 19 Hours

TAF LEMD 090500Z 0906/1012 02008KT 9999 SCT035 BKN050 TX14/0915Z TN01/1006Z